Terminal Aerodrome Forecast
Issued by NWS

Home | Current Version | Previous Version | Text Only | Print | Product List | Glossary On
Versions: 1 2 3 4 5 6 7 8 9 10 11 12 13 14
000
FTUS42 TJSJ 251700 RRA
TAFISX
TAF
TISX 251741Z 2518/2618 05012KT P6SM VCSH FEW027 SCT035
     FM252300 05007KT P6SM VCSH FEW030
     FM261300 09013KT P6SM SCT025=

USA.gov is the U.S. government's official web portal to all federal, state and local government web resources and services.